sensor_id;sensor_type;location;lat;lon;timestamp;P1;durP1;ratioP1;P2;durP2;ratioP2
17451;SDS011;8843;48.838;9.324;2022-11-24T00:00:49;5.70;;;2.30;;
17451;SDS011;8843;48.838;9.324;2022-11-24T00:03:16;5.13;;;2.07;;
17451;SDS011;8843;48.838;9.324;2022-11-24T00:05:43;4.23;;;2.40;;
17451;SDS011;8843;48.838;9.324;2022-11-24T00:08:12;3.77;;;2.00;;
17451;SDS011;8843;48.838;9.324;2022-11-24T00:10:39;5.23;;;1.47;;
17451;SDS011;8843;48.838;9.324;2022-11-24T00:13:06;4.83;;;1.60;;
17451;SDS011;8843;48.838;9.324;2022-11-24T00:15:33;8.93;;;2.20;;
17451;SDS011;8843;48.838;9.324;2022-11-24T00:18:00;5.53;;;2.57;;
17451;SDS011;8843;48.838;9.324;2022-11-24T00:20:27;4.67;;;1.73;;
17451;SDS011;8843;48.838;9.324;2022-11-24T00:22:54;2.60;;;1.87;;
17451;SDS011;8843;48.838;9.324;2022-11-24T00:25:22;4.47;;;1.87;;
17451;SDS011;8843;48.838;9.324;2022-11-24T00:27:51;4.80;;;1.80;;
17451;SDS011;8843;48.838;9.324;2022-11-24T00:30:18;4.43;;;1.90;;
17451;SDS011;8843;48.838;9.324;2022-11-24T00:32:45;3.33;;;1.80;;
17451;SDS011;8843;48.838;9.324;2022-11-24T00:35:12;4.27;;;1.60;;
17451;SDS011;8843;48.838;9.324;2022-11-24T00:37:39;8.40;;;2.23;;
17451;SDS011;8843;48.838;9.324;2022-11-24T00:40:06;6.10;;;2.03;;
17451;SDS011;8843;48.838;9.324;2022-11-24T00:42:35;3.07;;;1.63;;
17451;SDS011;8843;48.838;9.324;2022-11-24T00:45:03;6.17;;;2.00;;
17451;SDS011;8843;48.838;9.324;2022-11-24T00:47:30;6.67;;;2.70;;
17451;SDS011;8843;48.838;9.324;2022-11-24T00:49:58;3.07;;;1.60;;
17451;SDS011;8843;48.838;9.324;2022-11-24T00:52:25;4.47;;;1.67;;
17451;SDS011;8843;48.838;9.324;2022-11-24T00:54:52;6.27;;;1.53;;
17451;SDS011;8843;48.838;9.324;2022-11-24T00:57:19;4.07;;;1.80;;
17451;SDS011;8843;48.838;9.324;2022-11-24T00:59:47;7.87;;;2.10;;
17451;SDS011;8843;48.838;9.324;2022-11-24T01:02:14;5.83;;;1.83;;
17451;SDS011;8843;48.838;9.324;2022-11-24T01:04:41;5.77;;;1.63;;
17451;SDS011;8843;48.838;9.324;2022-11-24T01:07:08;5.10;;;1.70;;
17451;SDS011;8843;48.838;9.324;2022-11-24T01:09:35;10.07;;;1.80;;
17451;SDS011;8843;48.838;9.324;2022-11-24T01:12:03;5.90;;;2.23;;
17451;SDS011;8843;48.838;9.324;2022-11-24T01:14:30;9.60;;;1.90;;
17451;SDS011;8843;48.838;9.324;2022-11-24T01:16:59;3.70;;;1.97;;
17451;SDS011;8843;48.838;9.324;2022-11-24T01:19:26;5.20;;;2.20;;
17451;SDS011;8843;48.838;9.324;2022-11-24T01:21:53;7.37;;;2.23;;
17451;SDS011;8843;48.838;9.324;2022-11-24T01:24:20;5.37;;;1.90;;
17451;SDS011;8843;48.838;9.324;2022-11-24T01:26:47;8.07;;;2.10;;
17451;SDS011;8843;48.838;9.324;2022-11-24T01:29:14;5.40;;;1.83;;
17451;SDS011;8843;48.838;9.324;2022-11-24T01:31:42;5.60;;;1.93;;
17451;SDS011;8843;48.838;9.324;2022-11-24T01:34:10;6.10;;;2.20;;
17451;SDS011;8843;48.838;9.324;2022-11-24T01:36:37;6.30;;;1.97;;
17451;SDS011;8843;48.838;9.324;2022-11-24T01:39:04;6.37;;;2.13;;
17451;SDS011;8843;48.838;9.324;2022-11-24T01:41:32;6.60;;;1.90;;
17451;SDS011;8843;48.838;9.324;2022-11-24T01:43:59;7.43;;;2.70;;
17451;SDS011;8843;48.838;9.324;2022-11-24T01:46:27;5.83;;;1.97;;
17451;SDS011;8843;48.838;9.324;2022-11-24T01:49:03;8.47;;;1.80;;
17451;SDS011;8843;48.838;9.324;2022-11-24T01:51:38;5.87;;;2.13;;
17451;SDS011;8843;48.838;9.324;2022-11-24T01:54:12;6.47;;;1.60;;
17451;SDS011;8843;48.838;9.324;2022-11-24T01:56:42;8.20;;;1.93;;
17451;SDS011;8843;48.838;9.324;2022-11-24T01:59:12;5.53;;;1.30;;
17451;SDS011;8843;48.838;9.324;2022-11-24T02:01:40;6.70;;;1.83;;
17451;SDS011;8843;48.838;9.324;2022-11-24T02:04:08;5.90;;;2.07;;
17451;SDS011;8843;48.838;9.324;2022-11-24T02:06:39;6.53;;;1.93;;
17451;SDS011;8843;48.838;9.324;2022-11-24T02:09:10;8.50;;;1.90;;
17451;SDS011;8843;48.838;9.324;2022-11-24T02:11:42;6.30;;;1.87;;
17451;SDS011;8843;48.838;9.324;2022-11-24T02:14:12;4.63;;;1.47;;
17451;SDS011;8843;48.838;9.324;2022-11-24T02:16:43;3.97;;;1.50;;
17451;SDS011;8843;48.838;9.324;2022-11-24T02:19:17;9.10;;;2.17;;
17451;SDS011;8843;48.838;9.324;2022-11-24T02:21:52;5.30;;;2.23;;
17451;SDS011;8843;48.838;9.324;2022-11-24T02:24:20;5.47;;;1.80;;
17451;SDS011;8843;48.838;9.324;2022-11-24T02:26:54;4.67;;;1.60;;
17451;SDS011;8843;48.838;9.324;2022-11-24T02:29:21;5.43;;;1.80;;
17451;SDS011;8843;48.838;9.324;2022-11-24T02:31:50;3.63;;;1.70;;
17451;SDS011;8843;48.838;9.324;2022-11-24T02:34:20;8.67;;;2.20;;
17451;SDS011;8843;48.838;9.324;2022-11-24T02:36:47;11.77;;;2.40;;
17451;SDS011;8843;48.838;9.324;2022-11-24T02:39:14;4.43;;;1.30;;
17451;SDS011;8843;48.838;9.324;2022-11-24T02:41:42;6.57;;;1.70;;
17451;SDS011;8843;48.838;9.324;2022-11-24T02:44:16;4.60;;;1.80;;
17451;SDS011;8843;48.838;9.324;2022-11-24T02:46:46;5.23;;;1.67;;
17451;SDS011;8843;48.838;9.324;2022-11-24T02:49:13;4.07;;;2.17;;
17451;SDS011;8843;48.838;9.324;2022-11-24T02:51:40;3.30;;;1.43;;
17451;SDS011;8843;48.838;9.324;2022-11-24T02:54:08;4.00;;;1.93;;
17451;SDS011;8843;48.838;9.324;2022-11-24T02:56:35;8.60;;;2.67;;
17451;SDS011;8843;48.838;9.324;2022-11-24T02:59:02;4.37;;;1.60;;
17451;SDS011;8843;48.838;9.324;2022-11-24T03:01:30;3.47;;;1.30;;
17451;SDS011;8843;48.838;9.324;2022-11-24T03:03:57;4.73;;;1.80;;
17451;SDS011;8843;48.838;9.324;2022-11-24T03:06:24;4.77;;;1.57;;
17451;SDS011;8843;48.838;9.324;2022-11-24T03:08:51;4.37;;;1.40;;
17451;SDS011;8843;48.838;9.324;2022-11-24T03:11:18;6.43;;;2.20;;
17451;SDS011;8843;48.838;9.324;2022-11-24T03:13:45;9.13;;;1.70;;
17451;SDS011;8843;48.838;9.324;2022-11-24T03:16:12;5.03;;;1.60;;
17451;SDS011;8843;48.838;9.324;2022-11-24T03:18:40;4.00;;;2.13;;
17451;SDS011;8843;48.838;9.324;2022-11-24T03:21:07;4.70;;;1.87;;
17451;SDS011;8843;48.838;9.324;2022-11-24T03:23:35;4.47;;;1.73;;
17451;SDS011;8843;48.838;9.324;2022-11-24T03:26:05;5.57;;;1.97;;
17451;SDS011;8843;48.838;9.324;2022-11-24T03:28:34;3.57;;;1.57;;
17451;SDS011;8843;48.838;9.324;2022-11-24T03:31:01;4.53;;;1.30;;
17451;SDS011;8843;48.838;9.324;2022-11-24T03:33:28;4.03;;;1.50;;
17451;SDS011;8843;48.838;9.324;2022-11-24T03:35:56;2.30;;;1.20;;
17451;SDS011;8843;48.838;9.324;2022-11-24T03:38:23;3.70;;;1.23;;
17451;SDS011;8843;48.838;9.324;2022-11-24T03:40:51;5.00;;;1.20;;
17451;SDS011;8843;48.838;9.324;2022-11-24T03:43:18;5.27;;;1.43;;
17451;SDS011;8843;48.838;9.324;2022-11-24T03:45:45;4.33;;;1.50;;
17451;SDS011;8843;48.838;9.324;2022-11-24T03:48:12;3.80;;;1.40;;
17451;SDS011;8843;48.838;9.324;2022-11-24T03:50:40;3.93;;;1.60;;
17451;SDS011;8843;48.838;9.324;2022-11-24T03:53:09;3.63;;;1.50;;
17451;SDS011;8843;48.838;9.324;2022-11-24T03:55:36;4.17;;;1.67;;
17451;SDS011;8843;48.838;9.324;2022-11-24T03:58:03;4.77;;;1.50;;
17451;SDS011;8843;48.838;9.324;2022-11-24T04:00:30;6.97;;;1.80;;
17451;SDS011;8843;48.838;9.324;2022-11-24T04:02:57;3.30;;;1.53;;
17451;SDS011;8843;48.838;9.324;2022-11-24T04:05:24;2.93;;;1.33;;
17451;SDS011;8843;48.838;9.324;2022-11-24T04:07:53;3.20;;;1.60;;
17451;SDS011;8843;48.838;9.324;2022-11-24T04:10:23;2.90;;;1.40;;
17451;SDS011;8843;48.838;9.324;2022-11-24T04:12:50;6.63;;;1.60;;
17451;SDS011;8843;48.838;9.324;2022-11-24T04:15:17;4.27;;;1.80;;
17451;SDS011;8843;48.838;9.324;2022-11-24T04:17:45;5.80;;;1.83;;
17451;SDS011;8843;48.838;9.324;2022-11-24T04:20:13;5.40;;;1.70;;
17451;SDS011;8843;48.838;9.324;2022-11-24T04:22:41;5.10;;;1.33;;
17451;SDS011;8843;48.838;9.324;2022-11-24T04:25:08;6.37;;;1.60;;
17451;SDS011;8843;48.838;9.324;2022-11-24T04:27:37;3.10;;;1.30;;
17451;SDS011;8843;48.838;9.324;2022-11-24T04:30:05;3.00;;;1.50;;
17451;SDS011;8843;48.838;9.324;2022-11-24T04:32:33;2.73;;;1.43;;
17451;SDS011;8843;48.838;9.324;2022-11-24T04:35:00;6.87;;;1.70;;
17451;SDS011;8843;48.838;9.324;2022-11-24T04:37:27;4.70;;;1.60;;
17451;SDS011;8843;48.838;9.324;2022-11-24T04:39:54;3.77;;;1.30;;
17451;SDS011;8843;48.838;9.324;2022-11-24T04:42:21;2.73;;;1.50;;
17451;SDS011;8843;48.838;9.324;2022-11-24T04:44:49;7.30;;;2.00;;
17451;SDS011;8843;48.838;9.324;2022-11-24T04:47:17;6.23;;;1.40;;
17451;SDS011;8843;48.838;9.324;2022-11-24T04:49:45;6.30;;;1.70;;
17451;SDS011;8843;48.838;9.324;2022-11-24T04:52:13;4.93;;;1.60;;
17451;SDS011;8843;48.838;9.324;2022-11-24T04:54:40;4.87;;;1.83;;
17451;SDS011;8843;48.838;9.324;2022-11-24T04:57:07;2.53;;;1.40;;
17451;SDS011;8843;48.838;9.324;2022-11-24T04:59:41;4.20;;;1.30;;
17451;SDS011;8843;48.838;9.324;2022-11-24T05:02:09;5.03;;;1.50;;
17451;SDS011;8843;48.838;9.324;2022-11-24T05:04:37;4.13;;;1.77;;
17451;SDS011;8843;48.838;9.324;2022-11-24T05:07:04;4.17;;;1.50;;
17451;SDS011;8843;48.838;9.324;2022-11-24T05:09:31;6.33;;;1.90;;
17451;SDS011;8843;48.838;9.324;2022-11-24T05:11:58;6.10;;;1.70;;
17451;SDS011;8843;48.838;9.324;2022-11-24T05:14:26;3.30;;;1.77;;
17451;SDS011;8843;48.838;9.324;2022-11-24T05:16:53;6.83;;;1.70;;
17451;SDS011;8843;48.838;9.324;2022-11-24T05:19:21;6.57;;;1.80;;
17451;SDS011;8843;48.838;9.324;2022-11-24T05:21:48;3.20;;;1.63;;
17451;SDS011;8843;48.838;9.324;2022-11-24T05:24:16;5.03;;;1.87;;
17451;SDS011;8843;48.838;9.324;2022-11-24T05:26:43;3.30;;;1.70;;
17451;SDS011;8843;48.838;9.324;2022-11-24T05:29:10;2.40;;;1.30;;
17451;SDS011;8843;48.838;9.324;2022-11-24T05:31:37;5.87;;;1.63;;
17451;SDS011;8843;48.838;9.324;2022-11-24T05:34:03;4.13;;;1.50;;
17451;SDS011;8843;48.838;9.324;2022-11-24T05:36:32;2.60;;;1.60;;
17451;SDS011;8843;48.838;9.324;2022-11-24T05:39:16;2.20;;;1.60;;
17451;SDS011;8843;48.838;9.324;2022-11-24T05:41:43;6.93;;;1.60;;
17451;SDS011;8843;48.838;9.324;2022-11-24T05:44:10;3.13;;;1.70;;
17451;SDS011;8843;48.838;9.324;2022-11-24T05:46:37;6.50;;;2.17;;
17451;SDS011;8843;48.838;9.324;2022-11-24T05:49:04;5.87;;;1.80;;
17451;SDS011;8843;48.838;9.324;2022-11-24T05:51:33;5.77;;;2.00;;
17451;SDS011;8843;48.838;9.324;2022-11-24T05:54:00;5.17;;;2.00;;
17451;SDS011;8843;48.838;9.324;2022-11-24T05:56:27;4.70;;;1.80;;
17451;SDS011;8843;48.838;9.324;2022-11-24T05:58:53;5.90;;;2.00;;
17451;SDS011;8843;48.838;9.324;2022-11-24T06:01:20;5.40;;;1.93;;
17451;SDS011;8843;48.838;9.324;2022-11-24T06:03:47;10.57;;;2.10;;
17451;SDS011;8843;48.838;9.324;2022-11-24T06:06:14;7.80;;;1.70;;
17451;SDS011;8843;48.838;9.324;2022-11-24T06:08:42;5.43;;;2.10;;
17451;SDS011;8843;48.838;9.324;2022-11-24T06:11:09;6.53;;;1.80;;
17451;SDS011;8843;48.838;9.324;2022-11-24T06:13:46;7.87;;;1.80;;
17451;SDS011;8843;48.838;9.324;2022-11-24T06:16:13;9.30;;;2.13;;
17451;SDS011;8843;48.838;9.324;2022-11-24T06:18:40;2.67;;;1.50;;
17451;SDS011;8843;48.838;9.324;2022-11-24T06:21:07;5.90;;;1.80;;
17451;SDS011;8843;48.838;9.324;2022-11-24T06:23:34;8.77;;;2.60;;
17451;SDS011;8843;48.838;9.324;2022-11-24T06:26:03;3.67;;;1.63;;
17451;SDS011;8843;48.838;9.324;2022-11-24T06:28:30;5.17;;;1.77;;
17451;SDS011;8843;48.838;9.324;2022-11-24T06:31:00;5.83;;;2.10;;
17451;SDS011;8843;48.838;9.324;2022-11-24T06:33:31;3.77;;;1.60;;
17451;SDS011;8843;48.838;9.324;2022-11-24T06:36:00;3.63;;;1.60;;
17451;SDS011;8843;48.838;9.324;2022-11-24T06:38:27;4.23;;;1.80;;
17451;SDS011;8843;48.838;9.324;2022-11-24T06:40:58;3.63;;;1.70;;
17451;SDS011;8843;48.838;9.324;2022-11-24T06:43:28;6.47;;;1.87;;
17451;SDS011;8843;48.838;9.324;2022-11-24T06:45:55;5.93;;;2.30;;
17451;SDS011;8843;48.838;9.324;2022-11-24T06:48:23;5.97;;;1.60;;
17451;SDS011;8843;48.838;9.324;2022-11-24T06:50:50;6.07;;;2.10;;
17451;SDS011;8843;48.838;9.324;2022-11-24T06:53:17;6.77;;;2.73;;
17451;SDS011;8843;48.838;9.324;2022-11-24T06:55:44;9.40;;;2.07;;
17451;SDS011;8843;48.838;9.324;2022-11-24T06:58:12;7.70;;;3.00;;
17451;SDS011;8843;48.838;9.324;2022-11-24T07:00:40;6.60;;;1.90;;
17451;SDS011;8843;48.838;9.324;2022-11-24T07:03:08;7.67;;;2.53;;
17451;SDS011;8843;48.838;9.324;2022-11-24T07:05:41;8.13;;;2.47;;
17451;SDS011;8843;48.838;9.324;2022-11-24T07:08:08;6.77;;;2.03;;
17451;SDS011;8843;48.838;9.324;2022-11-24T07:10:35;9.93;;;2.40;;
17451;SDS011;8843;48.838;9.324;2022-11-24T07:13:02;5.63;;;2.40;;
17451;SDS011;8843;48.838;9.324;2022-11-24T07:15:32;6.67;;;2.03;;
17451;SDS011;8843;48.838;9.324;2022-11-24T07:18:00;8.63;;;2.30;;
17451;SDS011;8843;48.838;9.324;2022-11-24T07:20:27;9.53;;;2.73;;
17451;SDS011;8843;48.838;9.324;2022-11-24T07:22:54;7.37;;;1.70;;
17451;SDS011;8843;48.838;9.324;2022-11-24T07:25:22;6.83;;;2.20;;
17451;SDS011;8843;48.838;9.324;2022-11-24T07:27:49;9.53;;;2.00;;
17451;SDS011;8843;48.838;9.324;2022-11-24T07:30:21;9.87;;;2.50;;
17451;SDS011;8843;48.838;9.324;2022-11-24T07:32:48;8.87;;;2.33;;
17451;SDS011;8843;48.838;9.324;2022-11-24T07:35:16;7.27;;;2.80;;
17451;SDS011;8843;48.838;9.324;2022-11-24T07:37:43;10.67;;;2.60;;
17451;SDS011;8843;48.838;9.324;2022-11-24T07:40:10;7.23;;;2.03;;
17451;SDS011;8843;48.838;9.324;2022-11-24T07:42:37;9.70;;;2.30;;
17451;SDS011;8843;48.838;9.324;2022-11-24T07:45:04;5.20;;;1.87;;
17451;SDS011;8843;48.838;9.324;2022-11-24T07:47:32;9.03;;;2.50;;
17451;SDS011;8843;48.838;9.324;2022-11-24T07:50:03;9.40;;;2.30;;
17451;SDS011;8843;48.838;9.324;2022-11-24T07:52:32;7.13;;;2.13;;
17451;SDS011;8843;48.838;9.324;2022-11-24T07:54:59;9.53;;;2.23;;
17451;SDS011;8843;48.838;9.324;2022-11-24T07:57:26;10.47;;;2.57;;
17451;SDS011;8843;48.838;9.324;2022-11-24T07:59:53;9.07;;;2.20;;
17451;SDS011;8843;48.838;9.324;2022-11-24T08:02:20;7.43;;;3.23;;
17451;SDS011;8843;48.838;9.324;2022-11-24T08:04:48;10.13;;;2.57;;
17451;SDS011;8843;48.838;9.324;2022-11-24T08:07:15;6.77;;;2.67;;
17451;SDS011;8843;48.838;9.324;2022-11-24T08:09:43;10.77;;;3.47;;
17451;SDS011;8843;48.838;9.324;2022-11-24T08:12:10;9.93;;;2.43;;
17451;SDS011;8843;48.838;9.324;2022-11-24T08:14:37;11.93;;;4.20;;
17451;SDS011;8843;48.838;9.324;2022-11-24T08:17:04;9.10;;;3.27;;
17451;SDS011;8843;48.838;9.324;2022-11-24T08:19:30;8.83;;;2.33;;
17451;SDS011;8843;48.838;9.324;2022-11-24T08:21:58;10.07;;;2.93;;
17451;SDS011;8843;48.838;9.324;2022-11-24T08:24:25;11.37;;;2.73;;
17451;SDS011;8843;48.838;9.324;2022-11-24T08:26:54;7.00;;;2.07;;
17451;SDS011;8843;48.838;9.324;2022-11-24T08:29:21;7.53;;;2.47;;
17451;SDS011;8843;48.838;9.324;2022-11-24T08:31:48;7.83;;;4.80;;
17451;SDS011;8843;48.838;9.324;2022-11-24T08:34:15;7.13;;;2.70;;
17451;SDS011;8843;48.838;9.324;2022-11-24T08:36:41;6.30;;;2.67;;
17451;SDS011;8843;48.838;9.324;2022-11-24T08:39:08;7.03;;;2.40;;
17451;SDS011;8843;48.838;9.324;2022-11-24T08:41:36;4.77;;;2.30;;
17451;SDS011;8843;48.838;9.324;2022-11-24T08:44:04;7.40;;;2.30;;
17451;SDS011;8843;48.838;9.324;2022-11-24T08:46:32;5.93;;;2.10;;
17451;SDS011;8843;48.838;9.324;2022-11-24T08:48:59;6.83;;;2.47;;
17451;SDS011;8843;48.838;9.324;2022-11-24T08:51:26;3.53;;;2.07;;
17451;SDS011;8843;48.838;9.324;2022-11-24T08:53:54;6.27;;;2.07;;
17451;SDS011;8843;48.838;9.324;2022-11-24T08:56:22;6.20;;;2.10;;
17451;SDS011;8843;48.838;9.324;2022-11-24T08:58:49;4.40;;;1.83;;
17451;SDS011;8843;48.838;9.324;2022-11-24T09:01:18;4.57;;;2.07;;
17451;SDS011;8843;48.838;9.324;2022-11-24T09:03:45;4.57;;;2.37;;
17451;SDS011;8843;48.838;9.324;2022-11-24T09:06:14;3.80;;;1.70;;
17451;SDS011;8843;48.838;9.324;2022-11-24T09:08:41;5.90;;;2.13;;
17451;SDS011;8843;48.838;9.324;2022-11-24T09:11:09;3.37;;;1.60;;
17451;SDS011;8843;48.838;9.324;2022-11-24T09:13:37;5.40;;;1.80;;
17451;SDS011;8843;48.838;9.324;2022-11-24T09:16:06;5.17;;;1.97;;
17451;SDS011;8843;48.838;9.324;2022-11-24T09:18:36;3.87;;;1.67;;
17451;SDS011;8843;48.838;9.324;2022-11-24T09:21:06;5.27;;;1.80;;
17451;SDS011;8843;48.838;9.324;2022-11-24T09:23:34;3.43;;;1.80;;
17451;SDS011;8843;48.838;9.324;2022-11-24T09:26:02;3.30;;;1.60;;
17451;SDS011;8843;48.838;9.324;2022-11-24T09:28:30;4.90;;;1.97;;
17451;SDS011;8843;48.838;9.324;2022-11-24T09:30:59;2.93;;;1.80;;
17451;SDS011;8843;48.838;9.324;2022-11-24T09:33:26;1.70;;;1.60;;
17451;SDS011;8843;48.838;9.324;2022-11-24T09:35:55;2.30;;;1.33;;
17451;SDS011;8843;48.838;9.324;2022-11-24T09:38:22;5.47;;;1.70;;
17451;SDS011;8843;48.838;9.324;2022-11-24T09:40:49;8.20;;;2.10;;
17451;SDS011;8843;48.838;9.324;2022-11-24T09:43:18;2.10;;;1.40;;
17451;SDS011;8843;48.838;9.324;2022-11-24T09:45:52;2.00;;;1.47;;
17451;SDS011;8843;48.838;9.324;2022-11-24T09:48:29;4.07;;;2.00;;
17451;SDS011;8843;48.838;9.324;2022-11-24T09:51:02;4.67;;;1.70;;
17451;SDS011;8843;48.838;9.324;2022-11-24T09:53:31;5.43;;;1.83;;
17451;SDS011;8843;48.838;9.324;2022-11-24T09:56:03;4.07;;;1.60;;
17451;SDS011;8843;48.838;9.324;2022-11-24T09:58:42;3.60;;;1.60;;
17451;SDS011;8843;48.838;9.324;2022-11-24T10:01:13;3.87;;;1.70;;
17451;SDS011;8843;48.838;9.324;2022-11-24T10:03:42;4.57;;;1.40;;
17451;SDS011;8843;48.838;9.324;2022-11-24T10:06:21;1.63;;;1.50;;
17451;SDS011;8843;48.838;9.324;2022-11-24T10:09:02;1.37;;;1.07;;
17451;SDS011;8843;48.838;9.324;2022-11-24T10:11:51;1.87;;;1.17;;
17451;SDS011;8843;48.838;9.324;2022-11-24T10:14:35;1.63;;;1.00;;
17451;SDS011;8843;48.838;9.324;2022-11-24T10:17:21;1.90;;;1.03;;
17451;SDS011;8843;48.838;9.324;2022-11-24T10:20:02;1.80;;;1.40;;
17451;SDS011;8843;48.838;9.324;2022-11-24T10:22:40;1.23;;;1.00;;
17451;SDS011;8843;48.838;9.324;2022-11-24T10:25:18;1.53;;;1.13;;
17451;SDS011;8843;48.838;9.324;2022-11-24T10:27:53;0.97;;;0.90;;
17451;SDS011;8843;48.838;9.324;2022-11-24T10:30:27;2.03;;;1.20;;
17451;SDS011;8843;48.838;9.324;2022-11-24T10:32:55;1.27;;;1.17;;
17451;SDS011;8843;48.838;9.324;2022-11-24T10:35:27;1.33;;;1.10;;
17451;SDS011;8843;48.838;9.324;2022-11-24T10:38:09;1.13;;;0.90;;
17451;SDS011;8843;48.838;9.324;2022-11-24T10:40:46;2.27;;;1.00;;
17451;SDS011;8843;48.838;9.324;2022-11-24T10:43:17;1.23;;;1.00;;
17451;SDS011;8843;48.838;9.324;2022-11-24T10:45:44;1.73;;;1.10;;
17451;SDS011;8843;48.838;9.324;2022-11-24T10:48:15;1.00;;;1.00;;
17451;SDS011;8843;48.838;9.324;2022-11-24T10:50:45;2.00;;;1.10;;
17451;SDS011;8843;48.838;9.324;2022-11-24T10:53:16;2.13;;;1.80;;
17451;SDS011;8843;48.838;9.324;2022-11-24T10:55:56;2.83;;;1.43;;
17451;SDS011;8843;48.838;9.324;2022-11-24T10:58:25;1.57;;;1.40;;
17451;SDS011;8843;48.838;9.324;2022-11-24T11:00:54;2.10;;;1.40;;
17451;SDS011;8843;48.838;9.324;2022-11-24T11:03:23;1.00;;;1.00;;
17451;SDS011;8843;48.838;9.324;2022-11-24T11:05:51;3.00;;;1.20;;
17451;SDS011;8843;48.838;9.324;2022-11-24T11:08:26;2.10;;;1.10;;
17451;SDS011;8843;48.838;9.324;2022-11-24T11:11:10;1.70;;;1.00;;
17451;SDS011;8843;48.838;9.324;2022-11-24T11:13:50;3.23;;;1.00;;
17451;SDS011;8843;48.838;9.324;2022-11-24T11:16:22;1.00;;;1.00;;
17451;SDS011;8843;48.838;9.324;2022-11-24T11:18:51;1.40;;;1.00;;
17451;SDS011;8843;48.838;9.324;2022-11-24T11:21:24;2.10;;;1.00;;
17451;SDS011;8843;48.838;9.324;2022-11-24T11:23:55;1.20;;;1.00;;
17451;SDS011;8843;48.838;9.324;2022-11-24T11:29:15;0.83;;;0.83;;
17451;SDS011;8843;48.838;9.324;2022-11-24T11:34:41;2.37;;;1.10;;
17451;SDS011;8843;48.838;9.324;2022-11-24T11:37:08;2.70;;;1.30;;
17451;SDS011;8843;48.838;9.324;2022-11-24T11:39:40;1.20;;;1.10;;
17451;SDS011;8843;48.838;9.324;2022-11-24T11:42:13;2.97;;;1.30;;
17451;SDS011;8843;48.838;9.324;2022-11-24T11:44:45;2.47;;;1.30;;
17451;SDS011;8843;48.838;9.324;2022-11-24T11:47:17;3.27;;;1.40;;
17451;SDS011;8843;48.838;9.324;2022-11-24T11:49:48;4.27;;;1.53;;
17451;SDS011;8843;48.838;9.324;2022-11-24T11:52:26;1.63;;;1.23;;
17451;SDS011;8843;48.838;9.324;2022-11-24T11:55:20;1.60;;;1.07;;
17451;SDS011;8843;48.838;9.324;2022-11-24T11:58:01;1.33;;;1.10;;
17451;SDS011;8843;48.838;9.324;2022-11-24T12:00:37;2.13;;;1.10;;
17451;SDS011;8843;48.838;9.324;2022-11-24T12:06:13;3.23;;;1.40;;
17451;SDS011;8843;48.838;9.324;2022-11-24T12:08:54;2.77;;;1.10;;
17451;SDS011;8843;48.838;9.324;2022-11-24T12:11:30;3.80;;;1.20;;
17451;SDS011;8843;48.838;9.324;2022-11-24T12:14:08;2.10;;;1.30;;
17451;SDS011;8843;48.838;9.324;2022-11-24T12:16:43;5.83;;;1.50;;
17451;SDS011;8843;48.838;9.324;2022-11-24T12:19:23;4.67;;;1.90;;
17451;SDS011;8843;48.838;9.324;2022-11-24T12:22:06;5.20;;;1.30;;
17451;SDS011;8843;48.838;9.324;2022-11-24T12:24:40;3.60;;;1.70;;
17451;SDS011;8843;48.838;9.324;2022-11-24T12:27:15;5.43;;;1.50;;
17451;SDS011;8843;48.838;9.324;2022-11-24T12:29:54;3.23;;;1.60;;
17451;SDS011;8843;48.838;9.324;2022-11-24T12:32:36;6.80;;;2.00;;
17451;SDS011;8843;48.838;9.324;2022-11-24T12:35:19;2.10;;;1.40;;
17451;SDS011;8843;48.838;9.324;2022-11-24T12:37:56;5.83;;;1.90;;
17451;SDS011;8843;48.838;9.324;2022-11-24T12:40:31;6.00;;;1.60;;
17451;SDS011;8843;48.838;9.324;2022-11-24T12:43:09;3.13;;;1.20;;
17451;SDS011;8843;48.838;9.324;2022-11-24T12:45:45;2.83;;;1.50;;
17451;SDS011;8843;48.838;9.324;2022-11-24T12:48:27;6.17;;;1.73;;
17451;SDS011;8843;48.838;9.324;2022-11-24T12:51:00;3.80;;;1.47;;
17451;SDS011;8843;48.838;9.324;2022-11-24T12:53:30;11.37;;;1.67;;
17451;SDS011;8843;48.838;9.324;2022-11-24T12:56:03;6.83;;;1.90;;
17451;SDS011;8843;48.838;9.324;2022-11-24T12:58:34;3.87;;;1.50;;
17451;SDS011;8843;48.838;9.324;2022-11-24T13:01:07;5.73;;;1.70;;
17451;SDS011;8843;48.838;9.324;2022-11-24T13:03:43;4.90;;;1.90;;
17451;SDS011;8843;48.838;9.324;2022-11-24T13:06:22;5.50;;;2.10;;
17451;SDS011;8843;48.838;9.324;2022-11-24T13:08:54;5.43;;;1.73;;
17451;SDS011;8843;48.838;9.324;2022-11-24T13:11:25;5.20;;;2.03;;
17451;SDS011;8843;48.838;9.324;2022-11-24T13:14:06;6.00;;;1.60;;
17451;SDS011;8843;48.838;9.324;2022-11-24T13:16:47;10.97;;;1.90;;
17451;SDS011;8843;48.838;9.324;2022-11-24T13:19:16;7.37;;;2.10;;
17451;SDS011;8843;48.838;9.324;2022-11-24T13:21:55;4.77;;;1.87;;
17451;SDS011;8843;48.838;9.324;2022-11-24T13:24:26;4.53;;;1.90;;
17451;SDS011;8843;48.838;9.324;2022-11-24T13:29:53;6.63;;;1.93;;
17451;SDS011;8843;48.838;9.324;2022-11-24T13:32:44;10.17;;;1.93;;
17451;SDS011;8843;48.838;9.324;2022-11-24T13:35:12;6.80;;;1.67;;
17451;SDS011;8843;48.838;9.324;2022-11-24T13:37:44;6.30;;;1.63;;
17451;SDS011;8843;48.838;9.324;2022-11-24T13:43:18;3.17;;;1.80;;
17451;SDS011;8843;48.838;9.324;2022-11-24T13:45:48;6.30;;;1.90;;
17451;SDS011;8843;48.838;9.324;2022-11-24T13:51:22;5.10;;;1.43;;
17451;SDS011;8843;48.838;9.324;2022-11-24T13:53:49;4.43;;;1.77;;
17451;SDS011;8843;48.838;9.324;2022-11-24T13:56:20;4.63;;;1.53;;
17451;SDS011;8843;48.838;9.324;2022-11-24T13:58:54;4.47;;;1.43;;
17451;SDS011;8843;48.838;9.324;2022-11-24T14:01:24;5.37;;;1.43;;
17451;SDS011;8843;48.838;9.324;2022-11-24T14:04:04;5.43;;;1.40;;
17451;SDS011;8843;48.838;9.324;2022-11-24T14:06:41;3.97;;;1.93;;
17451;SDS011;8843;48.838;9.324;2022-11-24T14:09:17;6.60;;;1.90;;
17451;SDS011;8843;48.838;9.324;2022-11-24T14:11:54;2.77;;;1.43;;
17451;SDS011;8843;48.838;9.324;2022-11-24T14:14:29;5.80;;;1.70;;
17451;SDS011;8843;48.838;9.324;2022-11-24T14:17:09;5.23;;;1.40;;
17451;SDS011;8843;48.838;9.324;2022-11-24T14:19:41;4.10;;;1.63;;
17451;SDS011;8843;48.838;9.324;2022-11-24T14:22:11;6.17;;;1.47;;
17451;SDS011;8843;48.838;9.324;2022-11-24T14:24:44;6.40;;;1.87;;
17451;SDS011;8843;48.838;9.324;2022-11-24T14:27:17;5.70;;;1.50;;
17451;SDS011;8843;48.838;9.324;2022-11-24T14:29:52;4.87;;;1.57;;
17451;SDS011;8843;48.838;9.324;2022-11-24T14:32:22;4.73;;;1.70;;
17451;SDS011;8843;48.838;9.324;2022-11-24T14:34:49;4.50;;;2.23;;
17451;SDS011;8843;48.838;9.324;2022-11-24T14:37:18;6.00;;;1.90;;
17451;SDS011;8843;48.838;9.324;2022-11-24T14:39:45;4.17;;;1.57;;
17451;SDS011;8843;48.838;9.324;2022-11-24T14:42:16;6.60;;;1.63;;
17451;SDS011;8843;48.838;9.324;2022-11-24T14:44:46;7.33;;;2.27;;
17451;SDS011;8843;48.838;9.324;2022-11-24T14:47:18;7.73;;;2.10;;
17451;SDS011;8843;48.838;9.324;2022-11-24T14:49:50;5.13;;;1.70;;
17451;SDS011;8843;48.838;9.324;2022-11-24T14:52:20;6.57;;;1.80;;
17451;SDS011;8843;48.838;9.324;2022-11-24T14:54:49;5.67;;;2.13;;
17451;SDS011;8843;48.838;9.324;2022-11-24T14:57:22;5.20;;;1.97;;
17451;SDS011;8843;48.838;9.324;2022-11-24T15:00:04;6.57;;;1.87;;
17451;SDS011;8843;48.838;9.324;2022-11-24T15:02:42;6.77;;;1.63;;
17451;SDS011;8843;48.838;9.324;2022-11-24T15:05:12;5.57;;;1.93;;
17451;SDS011;8843;48.838;9.324;2022-11-24T15:07:40;5.13;;;1.80;;
17451;SDS011;8843;48.838;9.324;2022-11-24T15:10:16;6.07;;;1.70;;
17451;SDS011;8843;48.838;9.324;2022-11-24T15:12:48;3.60;;;1.73;;
17451;SDS011;8843;48.838;9.324;2022-11-24T15:15:22;4.37;;;1.93;;
17451;SDS011;8843;48.838;9.324;2022-11-24T15:17:56;7.80;;;1.63;;
17451;SDS011;8843;48.838;9.324;2022-11-24T15:20:26;7.77;;;2.03;;
17451;SDS011;8843;48.838;9.324;2022-11-24T15:23:19;3.40;;;1.80;;
17451;SDS011;8843;48.838;9.324;2022-11-24T15:25:47;6.77;;;2.00;;
17451;SDS011;8843;48.838;9.324;2022-11-24T15:28:15;4.23;;;1.50;;
17451;SDS011;8843;48.838;9.324;2022-11-24T15:30:42;9.50;;;1.90;;
17451;SDS011;8843;48.838;9.324;2022-11-24T15:33:12;5.63;;;1.90;;
17451;SDS011;8843;48.838;9.324;2022-11-24T15:35:40;2.17;;;1.60;;